createdAt,value
2018-09-10T00:00:20.402Z,15.80
2018-09-10T00:02:48.110Z,15.80
2018-09-10T00:05:15.738Z,15.80
2018-09-10T00:07:43.482Z,15.70
2018-09-10T00:10:11.184Z,15.70
2018-09-10T00:12:38.922Z,15.70
2018-09-10T00:15:06.760Z,15.70
2018-09-10T00:17:34.456Z,15.70
2018-09-10T00:20:02.244Z,15.80
2018-09-10T00:22:29.952Z,15.90
2018-09-10T00:24:57.624Z,15.90
2018-09-10T00:27:25.386Z,15.90
2018-09-10T00:29:53.254Z,15.90
2018-09-10T00:32:21.118Z,15.90
2018-09-10T00:34:48.765Z,15.90
2018-09-10T00:37:16.649Z,15.90
2018-09-10T00:39:44.356Z,15.80
2018-09-10T00:42:12.195Z,15.90
2018-09-10T00:44:39.944Z,15.90
2018-09-10T00:47:07.681Z,16.00
2018-09-10T00:49:35.477Z,15.90
2018-09-10T00:52:03.160Z,16.00
2018-09-10T00:54:30.812Z,15.90
2018-09-10T00:56:58.630Z,15.90
2018-09-10T00:59:26.338Z,15.80
2018-09-10T01:01:54.393Z,15.70
2018-09-10T01:04:22.044Z,15.60
2018-09-10T01:06:50.747Z,15.50
2018-09-10T01:09:18.763Z,15.50
2018-09-10T01:11:46.543Z,15.40
2018-09-10T01:14:14.307Z,15.30
2018-09-10T01:16:42.059Z,15.20
2018-09-10T01:19:09.745Z,15.20
2018-09-10T01:21:37.996Z,15.10
2018-09-10T01:24:05.806Z,15.00
2018-09-10T01:26:33.578Z,15.00
2018-09-10T01:29:01.929Z,14.90
2018-09-10T01:31:29.823Z,14.80
2018-09-10T01:35:04.861Z,14.70
2018-09-10T01:37:33.634Z,14.60
2018-09-10T01:40:02.053Z,14.50
2018-09-10T01:42:30.868Z,14.50
2018-09-10T01:44:59.634Z,14.40
2018-09-10T01:47:27.663Z,14.30
2018-09-10T01:49:55.562Z,14.20
2018-09-10T01:52:23.770Z,14.20
2018-09-10T01:54:51.589Z,14.10
2018-09-10T01:57:19.310Z,14.10
2018-09-10T01:59:47.050Z,14.10
2018-09-10T02:02:15.333Z,14.00
2018-09-10T02:04:43.533Z,13.90
2018-09-10T02:07:11.272Z,13.90
2018-09-10T02:09:39.104Z,13.90
2018-09-10T02:12:11.380Z,13.80
2018-09-10T02:14:39.197Z,13.80
2018-09-10T02:17:06.992Z,13.80
2018-09-10T02:19:34.678Z,13.90
2018-09-10T02:22:02.402Z,13.80
2018-09-10T02:24:30.208Z,13.80
2018-09-10T02:26:58.294Z,13.80
2018-09-10T02:29:25.988Z,13.90
2018-09-10T02:31:53.682Z,13.80
2018-09-10T02:34:21.422Z,13.80
2018-09-10T02:36:49.104Z,13.80
2018-09-10T02:39:16.822Z,13.80
2018-09-10T02:41:44.522Z,13.80
2018-09-10T02:44:13.405Z,13.80
2018-09-10T02:46:41.290Z,13.70
2018-09-10T02:49:09.291Z,13.70
2018-09-10T02:51:37.114Z,13.70
2018-09-10T02:54:05.023Z,13.80
2018-09-10T02:56:32.767Z,13.70
2018-09-10T02:59:00.539Z,13.70
2018-09-10T03:01:28.399Z,13.70
2018-09-10T03:03:56.268Z,13.70
2018-09-10T03:06:24.039Z,13.70
2018-09-10T03:08:51.986Z,13.80
2018-09-10T03:11:19.705Z,13.80
2018-09-10T03:13:47.593Z,13.80
2018-09-10T03:16:15.477Z,13.90
2018-09-10T03:18:43.610Z,13.90
2018-09-10T03:21:11.574Z,13.90
2018-09-10T03:23:39.263Z,13.80
2018-09-10T03:26:07.193Z,13.80
2018-09-10T03:28:35.034Z,13.90
2018-09-10T03:31:02.890Z,13.90
2018-09-10T03:33:31.104Z,13.90
2018-09-10T03:35:58.813Z,13.80
2018-09-10T03:38:26.649Z,13.80
2018-09-10T03:40:54.355Z,13.80
2018-09-10T03:43:22.117Z,13.80
2018-09-10T03:45:49.808Z,13.70
2018-09-10T03:48:17.693Z,13.70
2018-09-10T03:50:45.622Z,13.60
2018-09-10T03:53:20.155Z,13.60
2018-09-10T03:55:47.845Z,13.60
2018-09-10T03:58:15.521Z,13.60
2018-09-10T04:00:43.486Z,13.60
2018-09-10T04:03:11.188Z,13.60
2018-09-10T04:05:39.107Z,13.50
2018-09-10T04:08:06.833Z,13.50
2018-09-10T04:10:34.672Z,13.40
2018-09-10T04:13:02.446Z,13.40
2018-09-10T04:15:30.171Z,13.40
2018-09-10T04:17:58.313Z,13.40
2018-09-10T04:20:25.976Z,13.40
2018-09-10T04:22:53.704Z,13.40
2018-09-10T04:25:21.409Z,13.30
2018-09-10T04:27:49.069Z,13.30
2018-09-10T04:30:16.881Z,13.30
2018-09-10T04:32:44.671Z,13.30
2018-09-10T04:35:12.379Z,13.30
2018-09-10T04:37:40.846Z,13.40
2018-09-10T04:40:08.521Z,13.40
2018-09-10T04:42:36.294Z,13.40
2018-09-10T04:45:04.879Z,13.40
2018-09-10T04:47:32.621Z,13.40
2018-09-10T04:50:00.374Z,13.40
2018-09-10T04:52:28.096Z,13.30
2018-09-10T04:54:55.805Z,13.30
2018-09-10T04:57:23.519Z,13.30
2018-09-10T04:59:51.783Z,13.30
2018-09-10T05:02:19.592Z,13.30
2018-09-10T05:04:47.288Z,13.30
2018-09-10T05:07:14.950Z,13.30
2018-09-10T05:09:42.608Z,13.40
2018-09-10T05:12:10.361Z,13.40
2018-09-10T05:14:38.214Z,13.50
2018-09-10T05:17:06.166Z,13.60
2018-09-10T05:19:34.918Z,13.70
2018-09-10T05:22:03.921Z,13.80
2018-09-10T05:24:31.869Z,13.80
2018-09-10T05:26:59.869Z,13.90
2018-09-10T05:29:27.884Z,14.00
2018-09-10T05:31:55.776Z,14.10
2018-09-10T05:34:23.536Z,14.20
2018-09-10T05:36:51.729Z,14.40
2018-09-10T05:39:19.613Z,14.90
2018-09-10T05:41:48.120Z,15.50
2018-09-10T05:44:15.751Z,16.10
2018-09-10T05:46:43.435Z,17.10
2018-09-10T05:49:11.175Z,18.30
2018-09-10T05:51:39.019Z,19.70
2018-09-10T05:54:06.743Z,21.00
2018-09-10T05:56:34.623Z,22.20
2018-09-10T05:59:02.442Z,22.80
2018-09-10T06:01:30.249Z,23.10
2018-09-10T06:03:58.030Z,23.10
2018-09-10T06:06:25.873Z,22.70
2018-09-10T06:08:53.578Z,22.60
2018-09-10T06:11:21.412Z,22.50
2018-09-10T06:13:49.077Z,22.30
2018-09-10T06:16:16.773Z,22.10
2018-09-10T06:18:44.577Z,22.10
2018-09-10T06:21:12.309Z,22.40
2018-09-10T06:23:40.123Z,22.60
2018-09-10T06:26:08.104Z,22.80
2018-09-10T06:28:35.890Z,22.80
2018-09-10T06:31:03.672Z,22.80
2018-09-10T06:33:31.516Z,22.70
2018-09-10T06:35:59.208Z,22.90
2018-09-10T06:38:26.871Z,23.00
2018-09-10T06:40:54.698Z,22.90
2018-09-10T06:43:22.512Z,22.90
2018-09-10T06:45:50.234Z,22.80
2018-09-10T06:48:18.024Z,22.60
2018-09-10T06:50:45.729Z,22.40
2018-09-10T06:53:13.612Z,22.30
2018-09-10T06:55:41.453Z,22.20
2018-09-10T06:58:09.237Z,22.30
2018-09-10T07:00:36.993Z,22.20
2018-09-10T07:03:05.203Z,22.40
2018-09-10T07:05:33.076Z,22.60
2018-09-10T07:08:01.078Z,22.90
2018-09-10T07:10:28.899Z,23.40
2018-09-10T07:12:56.597Z,24.00
2018-09-10T07:15:24.293Z,24.50
2018-09-10T07:17:52.061Z,25.20
2018-09-10T07:20:19.765Z,25.60
2018-09-10T07:22:47.751Z,25.90
2018-09-10T07:25:17.035Z,25.00
2018-09-10T07:27:46.501Z,24.40
2018-09-10T07:30:19.930Z,24.40
2018-09-10T07:32:47.756Z,24.20
2018-09-10T07:35:15.417Z,24.10
2018-09-10T07:37:43.080Z,24.00
2018-09-10T07:40:10.914Z,23.70
2018-09-10T07:42:38.730Z,23.40
2018-09-10T07:45:06.496Z,23.10
2018-09-10T07:47:34.174Z,23.50
2018-09-10T07:50:01.845Z,24.20
2018-09-10T07:52:29.649Z,25.20
2018-09-10T07:54:57.377Z,25.80
2018-09-10T07:57:25.087Z,26.70
2018-09-10T07:59:52.784Z,26.70
2018-09-10T08:02:20.575Z,26.50
2018-09-10T08:04:48.425Z,26.60
2018-09-10T08:07:16.141Z,26.50
2018-09-10T08:09:43.884Z,26.40
2018-09-10T08:12:11.506Z,26.60
2018-09-10T08:14:39.139Z,26.90
2018-09-10T08:17:06.889Z,27.50
2018-09-10T08:19:34.557Z,27.30
2018-09-10T08:22:02.304Z,27.10
2018-09-10T08:24:30.087Z,27.70
2018-09-10T08:26:57.755Z,27.50
2018-09-10T08:29:25.476Z,27.50
2018-09-10T08:31:53.201Z,27.90
2018-09-10T08:34:20.830Z,28.20
2018-09-10T08:36:48.725Z,28.00
2018-09-10T08:39:16.490Z,27.70
2018-09-10T08:41:44.195Z,27.50
2018-09-10T08:44:12.005Z,26.90
2018-09-10T08:46:39.716Z,26.60
2018-09-10T08:49:07.423Z,25.70
2018-09-10T08:51:35.145Z,25.00
2018-09-10T08:54:02.936Z,24.90
2018-09-10T08:56:30.649Z,24.50
2018-09-10T08:58:58.373Z,24.10
2018-09-10T09:01:26.210Z,24.10
2018-09-10T09:03:53.877Z,23.70
2018-09-10T09:06:21.678Z,23.80
2018-09-10T09:08:49.370Z,23.80
2018-09-10T09:11:17.067Z,23.90
2018-09-10T09:13:44.902Z,23.70
2018-09-10T09:16:12.676Z,23.70
2018-09-10T09:18:40.434Z,23.80
2018-09-10T09:21:08.739Z,23.90
2018-09-10T09:23:36.666Z,24.00
2018-09-10T09:26:04.323Z,23.80
2018-09-10T09:28:32.006Z,24.10
2018-09-10T09:30:59.729Z,24.30
2018-09-10T09:33:27.422Z,24.20
2018-09-10T09:36:00.880Z,24.40
2018-09-10T09:38:34.211Z,24.40
2018-09-10T09:41:07.501Z,24.50
2018-09-10T09:43:40.861Z,24.60
2018-09-10T09:46:11.217Z,24.70
2018-09-10T09:48:38.942Z,24.80
2018-09-10T09:51:06.608Z,24.90
2018-09-10T09:53:34.837Z,25.00
2018-09-10T09:56:02.619Z,24.90
2018-09-10T09:58:30.435Z,25.10
2018-09-10T10:01:03.981Z,25.00
2018-09-10T10:03:37.445Z,25.10
2018-09-10T10:06:05.269Z,25.40
2018-09-10T10:08:32.933Z,25.60
2018-09-10T10:11:00.714Z,25.70
2018-09-10T10:13:28.553Z,25.70
2018-09-10T10:15:56.213Z,25.50
2018-09-10T10:18:24.053Z,25.40
2018-09-10T10:20:51.755Z,25.40
2018-09-10T10:23:19.653Z,25.50
2018-09-10T10:25:47.354Z,25.40
2018-09-10T10:28:15.079Z,25.30
2018-09-10T10:30:42.782Z,25.20
2018-09-10T10:33:10.634Z,25.20
2018-09-10T10:35:38.439Z,25.40
2018-09-10T10:38:06.265Z,25.30
2018-09-10T10:40:34.240Z,25.40
2018-09-10T10:43:02.024Z,25.60
2018-09-10T10:45:29.714Z,25.50
2018-09-10T10:47:57.553Z,25.60
2018-09-10T10:50:25.240Z,25.70
2018-09-10T10:52:53.054Z,25.80
2018-09-10T10:55:20.853Z,25.60
2018-09-10T10:57:49.039Z,25.40
2018-09-10T11:00:16.729Z,25.50
2018-09-10T11:02:44.527Z,25.80
2018-09-10T11:05:12.437Z,26.00
2018-09-10T11:07:40.125Z,26.00
2018-09-10T11:10:08.343Z,26.00
2018-09-10T11:12:36.065Z,26.20
2018-09-10T11:15:04.162Z,26.20
2018-09-10T11:17:31.895Z,26.30
2018-09-10T11:19:59.600Z,26.40
2018-09-10T11:22:27.413Z,26.30
2018-09-10T11:24:55.089Z,26.50
2018-09-10T11:27:22.878Z,26.50
2018-09-10T11:29:50.596Z,26.50
2018-09-10T11:32:18.309Z,26.50
2018-09-10T11:34:46.072Z,26.50
2018-09-10T11:37:13.787Z,26.50
2018-09-10T11:39:41.543Z,26.50
2018-09-10T11:42:09.265Z,26.50
2018-09-10T11:44:37.013Z,26.60
2018-09-10T11:47:04.822Z,26.70
2018-09-10T11:49:32.567Z,26.70
2018-09-10T11:52:00.189Z,26.70
2018-09-10T11:54:27.993Z,26.80
2018-09-10T11:56:55.677Z,26.90
2018-09-10T11:59:23.522Z,26.80
2018-09-10T12:01:51.229Z,26.90
2018-09-10T12:04:18.944Z,26.90
2018-09-10T12:06:46.587Z,26.80
2018-09-10T12:09:14.377Z,26.80
2018-09-10T12:11:42.149Z,26.80
2018-09-10T12:14:09.825Z,26.80
2018-09-10T12:16:37.565Z,26.80
2018-09-10T12:19:05.345Z,26.80
2018-09-10T12:21:33.051Z,26.80
2018-09-10T12:24:00.696Z,26.90
2018-09-10T12:26:28.442Z,26.80
2018-09-10T12:28:56.283Z,26.80
2018-09-10T12:31:23.983Z,26.90
2018-09-10T12:33:51.717Z,26.80
2018-09-10T12:36:19.477Z,26.80
2018-09-10T12:38:47.289Z,26.80
2018-09-10T12:41:15.205Z,27.00
2018-09-10T12:43:42.994Z,27.00
2018-09-10T12:46:10.787Z,27.10
2018-09-10T12:48:38.483Z,27.10
2018-09-10T12:51:06.141Z,27.20
2018-09-10T12:53:33.817Z,27.20
2018-09-10T12:56:01.507Z,27.30
2018-09-10T12:58:29.198Z,27.30
2018-09-10T13:00:57.143Z,27.40
2018-09-10T13:03:24.856Z,27.50
2018-09-10T13:05:52.539Z,27.60
2018-09-10T13:08:20.269Z,27.60
2018-09-10T13:10:48.191Z,27.80
2018-09-10T13:13:15.826Z,27.90
2018-09-10T13:15:43.489Z,28.00
2018-09-10T13:18:11.232Z,28.00
2018-09-10T13:20:38.878Z,28.00
2018-09-10T13:23:06.563Z,28.10
2018-09-10T13:25:34.380Z,28.30
2018-09-10T13:28:02.086Z,28.60
2018-09-10T13:30:30.102Z,28.70
2018-09-10T13:32:57.826Z,28.70
2018-09-10T13:35:25.571Z,28.80
2018-09-10T13:37:53.263Z,28.80
2018-09-10T13:40:21.079Z,28.90
2018-09-10T13:42:49.121Z,29.00
2018-09-10T13:45:16.796Z,29.20
2018-09-10T13:47:44.891Z,29.20
2018-09-10T13:50:12.650Z,29.20
2018-09-10T13:52:40.401Z,29.10
2018-09-10T13:55:08.085Z,29.00
2018-09-10T13:57:35.751Z,29.10
2018-09-10T14:00:03.968Z,29.10
2018-09-10T14:02:31.879Z,29.20
2018-09-10T14:04:59.635Z,29.20
2018-09-10T14:07:27.446Z,29.10
2018-09-10T14:09:55.247Z,29.00
2018-09-10T14:12:22.861Z,29.10
2018-09-10T14:14:50.516Z,29.20
2018-09-10T14:17:18.477Z,29.10
2018-09-10T14:19:46.216Z,29.00
2018-09-10T14:22:13.910Z,28.90
2018-09-10T14:24:41.588Z,28.80
2018-09-10T14:27:09.303Z,28.70
2018-09-10T14:29:37.078Z,28.50
2018-09-10T14:32:04.894Z,28.50
2018-09-10T14:34:32.651Z,28.50
2018-09-10T14:37:00.353Z,28.50
2018-09-10T14:39:28.068Z,28.60
2018-09-10T14:41:55.750Z,28.60
2018-09-10T14:44:23.466Z,28.70
2018-09-10T14:46:51.178Z,28.70
2018-09-10T14:49:18.894Z,28.80
2018-09-10T14:51:46.592Z,28.90
2018-09-10T14:54:14.281Z,28.90
2018-09-10T14:56:41.997Z,28.80
2018-09-10T14:59:09.712Z,28.80
2018-09-10T15:01:37.439Z,28.80
2018-09-10T15:04:05.235Z,28.80
2018-09-10T15:06:32.970Z,28.90
2018-09-10T15:09:00.703Z,28.80
2018-09-10T15:11:28.574Z,28.70
2018-09-10T15:13:56.259Z,28.60
2018-09-10T15:16:23.978Z,28.60
2018-09-10T15:18:51.825Z,28.60
2018-09-10T15:21:19.438Z,28.60
2018-09-10T15:23:47.320Z,28.50
2018-09-10T15:26:15.911Z,28.40
2018-09-10T15:28:43.841Z,28.40
2018-09-10T15:31:11.831Z,28.40
2018-09-10T15:33:39.473Z,28.50
2018-09-10T15:36:07.219Z,28.40
2018-09-10T15:38:35.035Z,28.40
2018-09-10T15:41:02.731Z,28.30
2018-09-10T15:43:30.530Z,28.30
2018-09-10T15:45:58.352Z,28.30
2018-09-10T15:48:26.174Z,28.20
2018-09-10T15:50:53.845Z,28.20
2018-09-10T15:53:21.846Z,28.20
2018-09-10T15:55:49.525Z,28.10
2018-09-10T15:58:17.268Z,28.00
2018-09-10T16:00:45.078Z,28.00
2018-09-10T16:03:13.084Z,27.90
2018-09-10T16:05:40.760Z,27.90
2018-09-10T16:08:08.490Z,27.80
